createdAt,value
2019-03-24T00:00:28.072Z,5.20
2019-03-24T00:03:34.371Z,5.35
2019-03-24T00:06:40.675Z,4.83
2019-03-24T00:09:47.828Z,4.80
2019-03-24T00:12:54.156Z,5.33
2019-03-24T00:16:00.588Z,4.97
2019-03-24T00:19:06.877Z,5.67
2019-03-24T00:22:13.141Z,5.15
2019-03-24T00:25:19.364Z,4.45
2019-03-24T00:28:25.596Z,4.50
2019-03-24T00:31:31.824Z,4.83
2019-03-24T00:34:39.147Z,4.40
2019-03-24T00:37:45.424Z,4.20
2019-03-24T00:40:51.623Z,4.53
2019-03-24T00:43:57.929Z,5.05
2019-03-24T00:47:04.159Z,4.97
2019-03-24T00:50:10.792Z,4.65
2019-03-24T00:53:17.039Z,4.42
2019-03-24T00:56:23.272Z,4.67
2019-03-24T00:59:29.631Z,4.37
2019-03-24T01:02:37.641Z,4.22
2019-03-24T01:05:44.174Z,4.40
2019-03-24T01:08:51.583Z,4.85
2019-03-24T01:11:57.816Z,4.37
2019-03-24T01:15:04.408Z,4.50
2019-03-24T01:18:10.756Z,4.35
2019-03-24T01:21:17.024Z,4.83
2019-03-24T01:24:23.268Z,4.70
2019-03-24T01:27:29.547Z,4.42
2019-03-24T01:30:35.815Z,4.40
2019-03-24T01:33:42.119Z,4.33
2019-03-24T01:36:48.332Z,4.62
2019-03-24T01:39:54.595Z,4.33
2019-03-24T01:43:00.866Z,4.25
2019-03-24T01:46:07.158Z,4.03
2019-03-24T01:49:13.451Z,4.55
2019-03-24T01:52:19.669Z,4.53
2019-03-24T01:55:25.933Z,4.12
2019-03-24T01:58:32.196Z,4.50
2019-03-24T02:01:38.460Z,3.80
2019-03-24T02:04:45.687Z,4.28
2019-03-24T02:07:51.920Z,4.28
2019-03-24T02:10:58.220Z,4.33
2019-03-24T02:14:04.473Z,4.30
2019-03-24T02:17:10.728Z,4.47
2019-03-24T02:20:16.988Z,4.03
2019-03-24T02:23:23.288Z,4.12
2019-03-24T02:26:29.558Z,4.33
2019-03-24T02:29:35.856Z,4.25
2019-03-24T02:32:42.065Z,3.83
2019-03-24T02:35:48.330Z,4.25
2019-03-24T02:38:54.592Z,4.37
2019-03-24T02:42:01.094Z,3.90
2019-03-24T02:45:07.939Z,3.98
2019-03-24T02:48:15.137Z,4.22
2019-03-24T02:51:21.408Z,3.85
2019-03-24T02:54:27.687Z,4.00
2019-03-24T02:57:33.956Z,3.47
2019-03-24T03:00:40.265Z,4.17
2019-03-24T03:03:46.478Z,3.80
2019-03-24T03:06:52.769Z,4.00
2019-03-24T03:09:59.044Z,3.98
2019-03-24T03:13:05.301Z,4.05
2019-03-24T03:16:11.601Z,3.80
2019-03-24T03:19:18.512Z,3.85
2019-03-24T03:22:25.817Z,3.98
2019-03-24T03:25:32.121Z,3.90
2019-03-24T03:28:39.387Z,3.47
2019-03-24T03:31:45.689Z,3.40
2019-03-24T03:34:53.638Z,3.90
2019-03-24T03:37:59.845Z,3.40
2019-03-24T03:41:06.129Z,3.25
2019-03-24T03:44:12.354Z,2.87
2019-03-24T03:47:20.476Z,4.60
2019-03-24T03:50:26.753Z,5.05
2019-03-24T03:53:33.018Z,4.47
2019-03-24T03:56:39.294Z,4.17
2019-03-24T03:59:45.528Z,3.98
2019-03-24T04:02:51.848Z,4.10
2019-03-24T04:05:58.077Z,3.70
2019-03-24T04:09:05.534Z,3.62
2019-03-24T04:12:11.772Z,3.95
2019-03-24T04:15:19.223Z,4.12
2019-03-24T04:18:25.234Z,3.72
2019-03-24T04:21:31.267Z,4.08
2019-03-24T04:24:37.273Z,3.60
2019-03-24T04:27:43.305Z,3.50
2019-03-24T04:30:50.375Z,3.37
2019-03-24T04:33:56.410Z,3.60
2019-03-24T04:37:03.649Z,3.65
2019-03-24T04:40:09.858Z,3.30
2019-03-24T04:43:15.899Z,3.45
2019-03-24T04:46:21.947Z,3.75
2019-03-24T04:49:28.051Z,3.15
2019-03-24T04:52:34.057Z,3.45
2019-03-24T04:55:40.057Z,3.70
2019-03-24T04:58:46.099Z,3.47
2019-03-24T05:01:52.096Z,3.33
2019-03-24T05:04:58.173Z,3.40
2019-03-24T05:08:04.806Z,3.30
2019-03-24T05:11:10.805Z,3.05
2019-03-24T05:14:16.846Z,3.20
2019-03-24T05:17:26.886Z,4.35
2019-03-24T05:20:30.518Z,4.35
2019-03-24T05:23:36.514Z,3.60
2019-03-24T05:26:42.515Z,3.62
2019-03-24T05:29:48.752Z,3.42
2019-03-24T05:32:54.758Z,3.92
2019-03-24T05:36:00.755Z,3.92
2019-03-24T05:39:07.697Z,4.05
2019-03-24T05:42:13.709Z,4.15
2019-03-24T05:45:19.705Z,3.85
2019-03-24T05:48:25.735Z,4.30
2019-03-24T05:51:31.810Z,3.52
2019-03-24T05:54:37.812Z,3.70
2019-03-24T05:57:43.800Z,3.20
2019-03-24T06:00:49.812Z,3.50
2019-03-24T06:03:55.815Z,2.92
2019-03-24T06:07:01.811Z,3.10
2019-03-24T06:10:08.421Z,3.02
2019-03-24T06:13:14.407Z,2.77
2019-03-24T06:16:20.404Z,2.90
2019-03-24T06:19:26.418Z,2.55
2019-03-24T06:22:33.482Z,2.47
2019-03-24T06:25:39.517Z,2.70
2019-03-24T06:28:45.604Z,2.52
2019-03-24T06:31:51.600Z,2.50
2019-03-24T06:34:57.604Z,2.37
2019-03-24T06:38:03.598Z,2.45
2019-03-24T06:41:09.586Z,2.25
2019-03-24T06:44:15.625Z,2.17
2019-03-24T06:47:21.644Z,2.08
2019-03-24T06:50:27.652Z,2.37
2019-03-24T06:53:33.633Z,2.20
2019-03-24T06:56:39.645Z,2.00
2019-03-24T06:59:45.672Z,2.20
2019-03-24T07:02:51.665Z,1.87
2019-03-24T07:05:57.722Z,2.40
2019-03-24T07:09:04.984Z,2.20
2019-03-24T07:12:11.210Z,2.00
2019-03-24T07:15:17.330Z,2.10
2019-03-24T07:18:23.339Z,1.70
2019-03-24T07:21:29.340Z,2.10
2019-03-24T07:24:35.337Z,2.12
2019-03-24T07:27:41.333Z,1.98
2019-03-24T07:30:47.369Z,1.80
2019-03-24T07:33:53.357Z,2.02
2019-03-24T07:36:59.360Z,2.00
2019-03-24T07:40:06.067Z,2.00
2019-03-24T07:43:12.071Z,1.77
2019-03-24T07:46:18.109Z,1.87
2019-03-24T07:49:24.109Z,2.12
2019-03-24T07:52:30.112Z,1.85
2019-03-24T07:55:36.160Z,1.87
2019-03-24T07:58:42.159Z,1.80
2019-03-24T08:01:49.133Z,1.40
2019-03-24T08:04:55.133Z,1.67
2019-03-24T08:08:01.199Z,1.67
2019-03-24T08:11:07.428Z,1.70
2019-03-24T08:14:13.421Z,1.67
2019-03-24T08:17:19.477Z,1.85
2019-03-24T08:20:25.464Z,1.92
2019-03-24T08:23:31.457Z,1.75
2019-03-24T08:26:37.492Z,1.75
2019-03-24T08:29:43.487Z,1.62
2019-03-24T08:32:49.516Z,1.30
2019-03-24T08:35:55.516Z,1.42
2019-03-24T08:39:01.586Z,1.50
2019-03-24T08:42:08.798Z,1.75
2019-03-24T08:45:17.947Z,1.40
2019-03-24T08:48:24.048Z,1.40
2019-03-24T08:51:30.052Z,1.40
2019-03-24T08:54:36.047Z,1.32
2019-03-24T08:57:42.086Z,1.47
2019-03-24T09:00:48.072Z,1.60
2019-03-24T09:03:54.107Z,1.52
2019-03-24T09:07:00.176Z,1.47
2019-03-24T09:10:07.109Z,1.52
2019-03-24T09:13:13.144Z,1.72
2019-03-24T09:16:19.193Z,1.30
2019-03-24T09:19:25.189Z,1.27
2019-03-24T09:22:31.224Z,1.30
2019-03-24T09:25:37.381Z,1.27
2019-03-24T09:28:45.106Z,1.20
2019-03-24T09:31:51.139Z,1.22
2019-03-24T09:34:57.136Z,1.20
2019-03-24T09:38:03.243Z,1.20
2019-03-24T09:41:09.256Z,1.22
2019-03-24T09:44:15.248Z,1.10
2019-03-24T09:47:21.251Z,1.30
2019-03-24T09:50:27.361Z,1.37
2019-03-24T09:53:33.372Z,1.32
2019-03-24T09:56:39.436Z,1.15
2019-03-24T09:59:45.445Z,1.20
2019-03-24T10:02:51.447Z,1.30
2019-03-24T10:05:57.486Z,1.17
2019-03-24T10:09:03.760Z,1.20
2019-03-24T10:12:10.220Z,1.30
2019-03-24T10:15:16.541Z,1.10
2019-03-24T10:18:22.612Z,1.12
2019-03-24T10:21:30.590Z,1.30
2019-03-24T10:24:36.800Z,1.30
2019-03-24T10:27:44.819Z,1.15
2019-03-24T10:30:51.087Z,1.17
2019-03-24T10:33:57.340Z,1.00
2019-03-24T10:37:03.512Z,1.22
2019-03-24T10:40:10.092Z,1.17
2019-03-24T10:43:16.372Z,1.30
2019-03-24T10:46:22.711Z,1.30
2019-03-24T10:49:28.879Z,1.10
2019-03-24T10:52:35.185Z,1.17
2019-03-24T10:55:41.540Z,1.20
2019-03-24T10:58:47.813Z,1.00
2019-03-24T11:01:54.076Z,1.20
2019-03-24T11:05:00.338Z,1.00
2019-03-24T11:08:06.795Z,1.10
2019-03-24T11:11:13.064Z,1.00
2019-03-24T11:14:20.358Z,1.00
2019-03-24T11:17:26.613Z,1.10
2019-03-24T11:20:32.908Z,0.90
2019-03-24T11:23:39.207Z,0.90
2019-03-24T11:26:45.424Z,1.00
2019-03-24T11:29:51.684Z,1.10
2019-03-24T11:32:57.992Z,1.42
2019-03-24T11:36:04.284Z,0.90
2019-03-24T11:39:10.644Z,0.98
2019-03-24T11:42:16.880Z,1.10
2019-03-24T11:45:23.144Z,0.93
2019-03-24T11:48:29.428Z,0.95
2019-03-24T11:51:35.663Z,0.98
2019-03-24T11:54:43.690Z,0.90
2019-03-24T11:57:51.524Z,0.70
2019-03-24T12:00:57.844Z,0.90
2019-03-24T12:04:04.151Z,0.88
2019-03-24T12:07:10.396Z,0.95
2019-03-24T12:10:16.998Z,0.80
2019-03-24T12:13:23.259Z,1.12
2019-03-24T12:16:29.892Z,0.80
2019-03-24T12:19:36.211Z,1.00
2019-03-24T12:22:42.448Z,0.90
2019-03-24T12:25:48.717Z,0.85
2019-03-24T12:28:55.104Z,1.00
2019-03-24T12:32:01.337Z,0.90
2019-03-24T12:35:07.840Z,0.90
2019-03-24T12:38:14.093Z,0.68
2019-03-24T12:41:20.369Z,0.80
2019-03-24T12:44:26.675Z,0.90
2019-03-24T12:47:32.871Z,0.90
2019-03-24T12:50:39.191Z,0.70
2019-03-24T12:53:45.428Z,0.80
2019-03-24T12:56:51.679Z,0.90
2019-03-24T12:59:57.979Z,1.00
2019-03-24T13:03:04.248Z,0.78
2019-03-24T13:06:10.616Z,0.98
2019-03-24T13:09:17.996Z,0.80
2019-03-24T13:12:24.257Z,1.10
2019-03-24T13:15:30.576Z,0.80
2019-03-24T13:18:36.819Z,0.72
2019-03-24T13:21:43.082Z,0.90
2019-03-24T13:24:49.308Z,1.00
2019-03-24T13:27:55.612Z,0.80
2019-03-24T13:31:01.894Z,0.85
2019-03-24T13:34:08.217Z,0.70
2019-03-24T13:37:15.464Z,0.57
2019-03-24T13:40:21.703Z,0.72
2019-03-24T13:43:27.932Z,0.90
2019-03-24T13:46:34.203Z,0.80
2019-03-24T13:49:40.524Z,0.80
2019-03-24T13:52:46.764Z,0.70
2019-03-24T13:55:53.123Z,0.85
2019-03-24T13:58:59.386Z,0.72
2019-03-24T14:02:05.836Z,0.62
2019-03-24T14:05:12.136Z,0.60
2019-03-24T14:08:18.412Z,0.62
2019-03-24T14:11:24.772Z,0.72
2019-03-24T14:14:31.011Z,0.72
2019-03-24T14:17:37.306Z,0.80
2019-03-24T14:20:44.063Z,0.80
2019-03-24T14:23:50.438Z,0.60
2019-03-24T14:26:57.728Z,0.78
2019-03-24T14:30:04.340Z,0.70
2019-03-24T14:33:10.665Z,0.88
2019-03-24T14:36:16.936Z,0.78
2019-03-24T14:39:23.200Z,0.50
2019-03-24T14:42:29.463Z,0.53
2019-03-24T14:45:35.768Z,0.78
2019-03-24T14:48:42.936Z,0.60
2019-03-24T14:51:49.198Z,0.85
2019-03-24T14:54:57.175Z,0.70
2019-03-24T14:58:04.683Z,0.70
2019-03-24T15:01:10.912Z,0.80
2019-03-24T15:04:17.256Z,0.53
2019-03-24T15:07:23.492Z,0.65
2019-03-24T15:10:29.768Z,0.70
2019-03-24T15:13:36.031Z,0.70
2019-03-24T15:16:43.360Z,0.50
2019-03-24T15:19:49.579Z,0.50
2019-03-24T15:22:56.879Z,0.78
2019-03-24T15:26:03.181Z,0.65
2019-03-24T15:29:09.420Z,0.60
2019-03-24T15:32:17.440Z,0.57
2019-03-24T15:35:23.708Z,0.70
2019-03-24T15:38:29.963Z,0.60
2019-03-24T15:41:37.196Z,0.60
2019-03-24T15:44:43.512Z,0.70
2019-03-24T15:47:49.822Z,0.60
2019-03-24T15:50:56.049Z,0.75
2019-03-24T15:54:02.216Z,0.72
2019-03-24T15:57:08.543Z,0.70
2019-03-24T16:00:15.508Z,0.70
2019-03-24T16:03:21.855Z,0.70
2019-03-24T16:06:28.148Z,0.70
2019-03-24T16:09:34.640Z,0.70
2019-03-24T16:12:40.844Z,0.60
2019-03-24T16:15:47.144Z,0.60
2019-03-24T16:18:53.380Z,1.00
2019-03-24T16:21:59.700Z,0.55
2019-03-24T16:25:06.127Z,0.80
2019-03-24T16:28:12.175Z,0.80
2019-03-24T16:31:18.181Z,0.55
2019-03-24T16:34:24.190Z,0.60
2019-03-24T16:37:30.221Z,0.70
2019-03-24T16:40:36.232Z,0.70
2019-03-24T16:43:42.260Z,0.90
2019-03-24T16:46:48.267Z,0.90
2019-03-24T16:49:54.269Z,0.53
2019-03-24T16:53:00.308Z,0.78
2019-03-24T16:56:06.333Z,0.82
2019-03-24T16:59:12.441Z,0.65
2019-03-24T17:02:18.492Z,0.70
2019-03-24T17:05:24.672Z,0.70
2019-03-24T17:08:30.720Z,0.90
2019-03-24T17:11:36.781Z,0.70
2019-03-24T17:14:42.892Z,0.80
2019-03-24T17:17:50.002Z,0.85
2019-03-24T17:20:55.999Z,0.80
2019-03-24T17:24:02.109Z,0.78
2019-03-24T17:27:08.113Z,0.80
2019-03-24T17:30:14.765Z,0.70
2019-03-24T17:33:21.099Z,0.90
2019-03-24T17:36:28.828Z,0.90
2019-03-24T17:39:56.160Z,1.67
2019-03-24T17:43:02.468Z,1.57
2019-03-24T17:46:08.502Z,1.50
2019-03-24T17:49:14.497Z,1.37
2019-03-24T17:52:20.524Z,1.50
2019-03-24T17:55:27.847Z,1.10
2019-03-24T17:58:35.371Z,1.40
2019-03-24T18:01:42.361Z,1.60
2019-03-24T18:04:48.349Z,1.10
2019-03-24T18:07:54.388Z,1.30
2019-03-24T18:11:00.440Z,0.93
2019-03-24T18:14:06.608Z,1.20
2019-03-24T18:17:12.701Z,1.20
2019-03-24T18:20:29.756Z,0.98
2019-03-24T18:23:35.868Z,1.20
2019-03-24T18:26:41.940Z,1.40
2019-03-24T18:29:48.023Z,1.22
2019-03-24T18:32:54.128Z,1.30
2019-03-24T18:36:00.136Z,1.20
2019-03-24T18:39:09.228Z,1.20
2019-03-24T18:42:15.389Z,1.10
2019-03-24T18:45:21.789Z,1.22
2019-03-24T18:48:27.858Z,1.20
2019-03-24T18:51:33.964Z,1.15
2019-03-24T18:54:39.998Z,1.22
2019-03-24T18:57:46.064Z,1.17
2019-03-24T19:00:52.076Z,1.10
2019-03-24T19:03:58.121Z,1.15
2019-03-24T19:07:04.200Z,1.30
2019-03-24T19:10:11.336Z,1.30
2019-03-24T19:13:17.524Z,1.22
2019-03-24T19:16:23.495Z,1.35
2019-03-24T19:19:29.531Z,1.30
2019-03-24T19:22:35.537Z,1.25
2019-03-24T19:25:41.567Z,1.32
2019-03-24T19:28:47.603Z,1.32
2019-03-24T19:31:53.684Z,1.42
2019-03-24T19:34:59.894Z,1.85
2019-03-24T19:38:06.070Z,2.33
2019-03-24T19:41:12.116Z,2.58
2019-03-24T19:44:18.919Z,2.15
2019-03-24T19:47:25.396Z,2.05
2019-03-24T19:50:31.790Z,1.95
2019-03-24T19:53:37.943Z,2.00
2019-03-24T19:56:43.991Z,1.50
2019-03-24T19:59:50.104Z,2.02
2019-03-24T20:02:56.204Z,2.08
2019-03-24T20:06:02.322Z,1.95
2019-03-24T20:09:09.784Z,1.98
2019-03-24T20:12:16.019Z,2.10
2019-03-24T20:15:22.004Z,2.17
2019-03-24T20:18:28.300Z,2.10
2019-03-24T20:21:34.396Z,2.15
2019-03-24T20:24:40.444Z,2.27
2019-03-24T20:27:46.604Z,2.67
2019-03-24T20:30:52.731Z,1.95
2019-03-24T20:33:58.768Z,2.12
2019-03-24T20:37:04.812Z,2.45
2019-03-24T20:40:11.411Z,2.22
2019-03-24T20:43:17.568Z,2.37
2019-03-24T20:46:23.904Z,2.55
2019-03-24T20:49:29.959Z,2.27
2019-03-24T20:52:37.163Z,2.50
2019-03-24T20:55:43.161Z,2.45
2019-03-24T20:58:49.228Z,2.52
2019-03-24T21:01:55.337Z,2.70
2019-03-24T21:05:01.415Z,2.50
2019-03-24T21:08:09.096Z,2.62
2019-03-24T21:11:15.198Z,2.58
2019-03-24T21:14:21.281Z,2.55
2019-03-24T21:17:27.322Z,2.60
2019-03-24T21:20:33.317Z,2.60
2019-03-24T21:23:39.427Z,2.47
2019-03-24T21:26:45.644Z,2.30
2019-03-24T21:29:51.890Z,2.90
2019-03-24T21:32:58.316Z,2.65
2019-03-24T21:36:04.382Z,2.80
2019-03-24T21:39:10.569Z,2.55
2019-03-24T21:42:16.640Z,2.50
2019-03-24T21:45:23.725Z,2.92
2019-03-24T21:48:29.803Z,2.95
2019-03-24T21:51:35.896Z,3.10
2019-03-24T21:54:41.916Z,3.00
2019-03-24T21:57:57.105Z,3.70
2019-03-24T22:00:55.612Z,3.60
2019-03-24T22:04:01.643Z,3.50
2019-03-24T22:07:07.749Z,3.02
2019-03-24T22:10:13.762Z,3.52
2019-03-24T22:13:19.840Z,4.60
2019-03-24T22:16:25.912Z,4.12
2019-03-24T22:19:31.925Z,4.22
2019-03-24T22:22:37.968Z,6.20
2019-03-24T22:25:44.176Z,6.33
2019-03-24T22:29:38.167Z,5.22
2019-03-24T22:32:44.444Z,5.28
2019-03-24T22:35:50.708Z,5.30
2019-03-24T22:38:57.247Z,4.42
2019-03-24T22:42:03.423Z,4.58
2019-03-24T22:45:09.892Z,4.10
2019-03-24T22:48:16.188Z,4.83
2019-03-24T22:51:22.452Z,3.75
2019-03-24T22:54:28.523Z,4.20
2019-03-24T22:57:34.764Z,4.15
2019-03-24T23:00:56.916Z,3.92
2019-03-24T23:04:04.491Z,4.10
2019-03-24T23:07:10.784Z,4.30
2019-03-24T23:10:19.680Z,3.72
2019-03-24T23:13:25.908Z,3.83
2019-03-24T23:16:32.133Z,3.83
2019-03-24T23:19:38.387Z,4.62
2019-03-24T23:22:44.672Z,3.98
2019-03-24T23:25:50.984Z,4.20
2019-03-24T23:28:57.235Z,4.20
2019-03-24T23:32:03.559Z,4.08
2019-03-24T23:35:09.852Z,4.22
2019-03-24T23:38:16.099Z,3.72
2019-03-24T23:41:23.391Z,3.58
2019-03-24T23:44:29.725Z,3.80
2019-03-24T23:47:35.752Z,3.92
2019-03-24T23:50:41.988Z,3.58
2019-03-24T23:53:48.252Z,3.75
2019-03-24T23:56:54.519Z,3.83
